sensor_id;sensor_type;location;lat;lon;timestamp;temperature;humidity
24902;DHT22;31328;51.402;0.016;2023-03-30T00:00:09;12.90;99.90
24902;DHT22;31328;51.402;0.016;2023-03-30T00:02:48;12.90;99.90
24902;DHT22;31328;51.402;0.016;2023-03-30T00:05:16;12.90;99.90
24902;DHT22;31328;51.402;0.016;2023-03-30T00:07:43;12.90;99.90
24902;DHT22;31328;51.402;0.016;2023-03-30T00:10:14;12.90;99.90
24902;DHT22;31328;51.402;0.016;2023-03-30T00:12:43;12.90;99.90
24902;DHT22;31328;51.402;0.016;2023-03-30T00:15:13;13.00;99.90
24902;DHT22;31328;51.402;0.016;2023-03-30T00:17:40;12.90;99.90
24902;DHT22;31328;51.402;0.016;2023-03-30T00:20:08;12.90;99.90
24902;DHT22;31328;51.402;0.016;2023-03-30T00:22:38;13.00;99.90
24902;DHT22;31328;51.402;0.016;2023-03-30T00:25:09;12.90;99.90
24902;DHT22;31328;51.402;0.016;2023-03-30T00:27:36;13.00;99.90
24902;DHT22;31328;51.402;0.016;2023-03-30T00:30:07;12.90;99.90
24902;DHT22;31328;51.402;0.016;2023-03-30T00:32:34;13.00;99.90
24902;DHT22;31328;51.402;0.016;2023-03-30T00:35:01;12.90;99.90
24902;DHT22;31328;51.402;0.016;2023-03-30T00:37:28;12.90;99.90
24902;DHT22;31328;51.402;0.016;2023-03-30T00:39:55;12.90;99.90
24902;DHT22;31328;51.402;0.016;2023-03-30T00:42:21;12.90;99.90
24902;DHT22;31328;51.402;0.016;2023-03-30T00:50:19;12.80;99.90
24902;DHT22;31328;51.402;0.016;2023-03-30T00:52:48;12.80;99.90
24902;DHT22;31328;51.402;0.016;2023-03-30T00:55:19;12.80;99.90
24902;DHT22;31328;51.402;0.016;2023-03-30T00:57:47;12.80;99.90
24902;DHT22;31328;51.402;0.016;2023-03-30T01:00:16;12.80;99.90
24902;DHT22;31328;51.402;0.016;2023-03-30T01:02:48;12.80;99.90
24902;DHT22;31328;51.402;0.016;2023-03-30T01:05:16;12.70;99.90
24902;DHT22;31328;51.402;0.016;2023-03-30T01:07:42;12.70;99.90
24902;DHT22;31328;51.402;0.016;2023-03-30T01:10:11;12.70;99.90
24902;DHT22;31328;51.402;0.016;2023-03-30T01:12:39;12.70;99.90
24902;DHT22;31328;51.402;0.016;2023-03-30T01:15:07;12.70;99.90
24902;DHT22;31328;51.402;0.016;2023-03-30T01:21:00;12.70;99.90
24902;DHT22;31328;51.402;0.016;2023-03-30T01:23:51;12.70;99.90
24902;DHT22;31328;51.402;0.016;2023-03-30T01:43:16;12.70;99.90
24902;DHT22;31328;51.402;0.016;2023-03-30T01:45:50;12.70;99.90
24902;DHT22;31328;51.402;0.016;2023-03-30T01:48:38;12.70;99.90
24902;DHT22;31328;51.402;0.016;2023-03-30T01:51:16;12.70;99.90
24902;DHT22;31328;51.402;0.016;2023-03-30T01:53:58;12.70;99.90
24902;DHT22;31328;51.402;0.016;2023-03-30T01:56:50;12.60;99.90
24902;DHT22;31328;51.402;0.016;2023-03-30T01:59:38;12.60;99.90
24902;DHT22;31328;51.402;0.016;2023-03-30T02:02:07;12.60;99.90
24902;DHT22;31328;51.402;0.016;2023-03-30T02:04:39;12.60;99.90
24902;DHT22;31328;51.402;0.016;2023-03-30T02:07:11;12.60;99.90
24902;DHT22;31328;51.402;0.016;2023-03-30T02:09:41;12.60;99.90
24902;DHT22;31328;51.402;0.016;2023-03-30T02:12:09;12.60;99.90
24902;DHT22;31328;51.402;0.016;2023-03-30T02:14:38;12.60;99.90
24902;DHT22;31328;51.402;0.016;2023-03-30T02:17:13;12.50;99.90
24902;DHT22;31328;51.402;0.016;2023-03-30T02:19:40;12.50;99.90
24902;DHT22;31328;51.402;0.016;2023-03-30T02:22:08;12.50;99.90
24902;DHT22;31328;51.402;0.016;2023-03-30T02:24:35;12.50;99.90
24902;DHT22;31328;51.402;0.016;2023-03-30T02:27:01;12.50;99.90
24902;DHT22;31328;51.402;0.016;2023-03-30T02:29:28;12.40;99.90
24902;DHT22;31328;51.402;0.016;2023-03-30T02:31:56;12.40;99.90
24902;DHT22;31328;51.402;0.016;2023-03-30T02:37:21;12.30;99.90
24902;DHT22;31328;51.402;0.016;2023-03-30T02:39:58;12.20;99.90
24902;DHT22;31328;51.402;0.016;2023-03-30T02:42:55;12.20;99.90
24902;DHT22;31328;51.402;0.016;2023-03-30T02:56:26;12.20;99.90
24902;DHT22;31328;51.402;0.016;2023-03-30T03:02:01;12.20;99.90
24902;DHT22;31328;51.402;0.016;2023-03-30T03:04:30;12.20;99.90
24902;DHT22;31328;51.402;0.016;2023-03-30T03:07:31;12.10;99.90
24902;DHT22;31328;51.402;0.016;2023-03-30T03:10:00;12.10;99.90
24902;DHT22;31328;51.402;0.016;2023-03-30T03:12:26;12.10;99.90
24902;DHT22;31328;51.402;0.016;2023-03-30T03:14:53;12.10;99.90
24902;DHT22;31328;51.402;0.016;2023-03-30T03:17:20;12.10;99.90
24902;DHT22;31328;51.402;0.016;2023-03-30T03:19:48;12.10;99.90
24902;DHT22;31328;51.402;0.016;2023-03-30T03:22:16;12.00;99.90
24902;DHT22;31328;51.402;0.016;2023-03-30T03:24:43;12.00;99.90
24902;DHT22;31328;51.402;0.016;2023-03-30T03:27:24;12.00;99.90
24902;DHT22;31328;51.402;0.016;2023-03-30T03:30:05;12.00;99.90
24902;DHT22;31328;51.402;0.016;2023-03-30T03:32:38;12.00;99.90
24902;DHT22;31328;51.402;0.016;2023-03-30T03:35:04;12.00;99.90
24902;DHT22;31328;51.402;0.016;2023-03-30T03:37:33;11.90;99.90
24902;DHT22;31328;51.402;0.016;2023-03-30T03:39:59;11.80;99.90
24902;DHT22;31328;51.402;0.016;2023-03-30T03:42:26;11.80;99.90
24902;DHT22;31328;51.402;0.016;2023-03-30T03:45:02;11.80;99.90
24902;DHT22;31328;51.402;0.016;2023-03-30T03:47:32;11.80;99.90
24902;DHT22;31328;51.402;0.016;2023-03-30T03:49:59;11.70;99.90
24902;DHT22;31328;51.402;0.016;2023-03-30T03:52:29;11.70;99.90
24902;DHT22;31328;51.402;0.016;2023-03-30T03:54:56;11.70;99.90
24902;DHT22;31328;51.402;0.016;2023-03-30T03:57:22;11.70;99.90
24902;DHT22;31328;51.402;0.016;2023-03-30T03:59:49;11.60;99.90
24902;DHT22;31328;51.402;0.016;2023-03-30T04:02:17;11.60;99.90
24902;DHT22;31328;51.402;0.016;2023-03-30T04:04:43;11.60;99.90
24902;DHT22;31328;51.402;0.016;2023-03-30T04:07:10;11.50;99.90
24902;DHT22;31328;51.402;0.016;2023-03-30T04:09:37;11.50;99.90
24902;DHT22;31328;51.402;0.016;2023-03-30T04:12:29;11.50;99.90
24902;DHT22;31328;51.402;0.016;2023-03-30T04:15:28;11.60;99.90
24902;DHT22;31328;51.402;0.016;2023-03-30T04:18:21;11.50;99.90
24902;DHT22;31328;51.402;0.016;2023-03-30T04:21:10;11.50;99.90
24902;DHT22;31328;51.402;0.016;2023-03-30T04:23:56;11.50;99.90
24902;DHT22;31328;51.402;0.016;2023-03-30T04:26:41;11.50;99.90
24902;DHT22;31328;51.402;0.016;2023-03-30T04:29:42;11.50;99.90
24902;DHT22;31328;51.402;0.016;2023-03-30T04:32:28;11.50;99.90
24902;DHT22;31328;51.402;0.016;2023-03-30T04:35:17;11.50;99.90
24902;DHT22;31328;51.402;0.016;2023-03-30T04:38:02;11.40;99.90
24902;DHT22;31328;51.402;0.016;2023-03-30T04:40:48;11.40;99.90
24902;DHT22;31328;51.402;0.016;2023-03-30T04:43:23;11.40;99.90
24902;DHT22;31328;51.402;0.016;2023-03-30T04:46:21;11.40;99.90
24902;DHT22;31328;51.402;0.016;2023-03-30T04:49:03;11.30;99.90
24902;DHT22;31328;51.402;0.016;2023-03-30T04:51:48;11.30;99.90
24902;DHT22;31328;51.402;0.016;2023-03-30T04:54:33;11.20;99.90
24902;DHT22;31328;51.402;0.016;2023-03-30T04:57:15;11.20;99.90
24902;DHT22;31328;51.402;0.016;2023-03-30T05:00:01;11.20;99.90
24902;DHT22;31328;51.402;0.016;2023-03-30T05:02:46;11.20;99.90
24902;DHT22;31328;51.402;0.016;2023-03-30T05:05:31;11.20;99.90
24902;DHT22;31328;51.402;0.016;2023-03-30T05:08:29;11.20;99.90
24902;DHT22;31328;51.402;0.016;2023-03-30T05:11:14;11.20;99.90
24902;DHT22;31328;51.402;0.016;2023-03-30T05:14:00;11.10;99.90
24902;DHT22;31328;51.402;0.016;2023-03-30T05:16:27;11.10;99.90
24902;DHT22;31328;51.402;0.016;2023-03-30T05:19:13;11.10;99.90
24902;DHT22;31328;51.402;0.016;2023-03-30T05:21:51;11.10;99.90
24902;DHT22;31328;51.402;0.016;2023-03-30T05:24:32;11.20;99.90
24902;DHT22;31328;51.402;0.016;2023-03-30T05:27:12;11.20;99.90
24902;DHT22;31328;51.402;0.016;2023-03-30T05:30:02;11.20;99.90
24902;DHT22;31328;51.402;0.016;2023-03-30T05:32:55;11.20;99.90
24902;DHT22;31328;51.402;0.016;2023-03-30T05:35:35;11.20;99.90
24902;DHT22;31328;51.402;0.016;2023-03-30T05:38:22;11.30;99.90
24902;DHT22;31328;51.402;0.016;2023-03-30T05:41:09;11.30;99.90
24902;DHT22;31328;51.402;0.016;2023-03-30T05:44:04;11.30;99.90
24902;DHT22;31328;51.402;0.016;2023-03-30T05:46:54;11.30;99.90
24902;DHT22;31328;51.402;0.016;2023-03-30T05:49:43;11.20;99.90
24902;DHT22;31328;51.402;0.016;2023-03-30T05:52:25;11.20;99.90
24902;DHT22;31328;51.402;0.016;2023-03-30T05:54:57;11.20;99.90
24902;DHT22;31328;51.402;0.016;2023-03-30T05:57:35;11.20;99.90
24902;DHT22;31328;51.402;0.016;2023-03-30T06:00:28;11.20;99.90
24902;DHT22;31328;51.402;0.016;2023-03-30T06:03:03;11.30;99.90
24902;DHT22;31328;51.402;0.016;2023-03-30T06:05:34;11.30;99.90
24902;DHT22;31328;51.402;0.016;2023-03-30T06:08:00;11.30;99.90
24902;DHT22;31328;51.402;0.016;2023-03-30T06:10:27;11.30;99.90
24902;DHT22;31328;51.402;0.016;2023-03-30T06:12:54;11.40;99.90
24902;DHT22;31328;51.402;0.016;2023-03-30T06:15:39;11.40;99.90
24902;DHT22;31328;51.402;0.016;2023-03-30T06:18:12;11.40;99.90
24902;DHT22;31328;51.402;0.016;2023-03-30T06:20:46;11.40;99.90
24902;DHT22;31328;51.402;0.016;2023-03-30T06:23:13;11.40;99.90
24902;DHT22;31328;51.402;0.016;2023-03-30T06:25:44;11.40;99.90
24902;DHT22;31328;51.402;0.016;2023-03-30T06:28:11;11.40;99.90
24902;DHT22;31328;51.402;0.016;2023-03-30T06:30:38;11.40;99.90
24902;DHT22;31328;51.402;0.016;2023-03-30T06:33:07;11.40;99.90
24902;DHT22;31328;51.402;0.016;2023-03-30T06:35:46;11.40;99.90
24902;DHT22;31328;51.402;0.016;2023-03-30T06:38:16;11.50;99.90
24902;DHT22;31328;51.402;0.016;2023-03-30T06:40:42;11.50;99.90
24902;DHT22;31328;51.402;0.016;2023-03-30T06:43:15;11.60;99.90
24902;DHT22;31328;51.402;0.016;2023-03-30T06:45:55;11.60;99.90
24902;DHT22;31328;51.402;0.016;2023-03-30T06:48:22;11.80;99.90
24902;DHT22;31328;51.402;0.016;2023-03-30T06:51:00;11.90;99.90
24902;DHT22;31328;51.402;0.016;2023-03-30T06:53:29;11.90;99.90
24902;DHT22;31328;51.402;0.016;2023-03-30T06:55:57;12.00;99.90
24902;DHT22;31328;51.402;0.016;2023-03-30T06:58:25;12.10;99.90
24902;DHT22;31328;51.402;0.016;2023-03-30T07:00:53;12.10;99.90
24902;DHT22;31328;51.402;0.016;2023-03-30T07:03:25;12.20;99.90
24902;DHT22;31328;51.402;0.016;2023-03-30T07:06:14;12.30;99.90
24902;DHT22;31328;51.402;0.016;2023-03-30T07:08:43;12.30;99.90
24902;DHT22;31328;51.402;0.016;2023-03-30T07:11:14;12.40;99.90
24902;DHT22;31328;51.402;0.016;2023-03-30T07:13:40;12.50;99.90
24902;DHT22;31328;51.402;0.016;2023-03-30T07:16:08;12.50;99.90
24902;DHT22;31328;51.402;0.016;2023-03-30T07:18:35;12.50;99.90
24902;DHT22;31328;51.402;0.016;2023-03-30T07:21:01;12.60;99.90
24902;DHT22;31328;51.402;0.016;2023-03-30T07:23:33;12.60;99.90
24902;DHT22;31328;51.402;0.016;2023-03-30T07:26:01;12.60;99.90
24902;DHT22;31328;51.402;0.016;2023-03-30T07:28:36;12.60;99.90
24902;DHT22;31328;51.402;0.016;2023-03-30T07:31:08;12.60;99.90
24902;DHT22;31328;51.402;0.016;2023-03-30T07:33:36;12.60;99.90
24902;DHT22;31328;51.402;0.016;2023-03-30T07:36:04;12.60;99.90
24902;DHT22;31328;51.402;0.016;2023-03-30T07:38:32;12.70;99.90
24902;DHT22;31328;51.402;0.016;2023-03-30T07:40:59;12.70;99.90
24902;DHT22;31328;51.402;0.016;2023-03-30T07:43:26;12.70;99.90
24902;DHT22;31328;51.402;0.016;2023-03-30T07:45:55;12.80;99.90
24902;DHT22;31328;51.402;0.016;2023-03-30T07:48:28;12.80;99.90
24902;DHT22;31328;51.402;0.016;2023-03-30T07:51:03;12.90;99.90
24902;DHT22;31328;51.402;0.016;2023-03-30T07:53:31;12.90;99.90
24902;DHT22;31328;51.402;0.016;2023-03-30T07:56:02;12.90;99.90
24902;DHT22;31328;51.402;0.016;2023-03-30T07:58:36;13.00;99.90
24902;DHT22;31328;51.402;0.016;2023-03-30T08:01:02;13.00;99.90
24902;DHT22;31328;51.402;0.016;2023-03-30T08:03:36;13.00;99.90
24902;DHT22;31328;51.402;0.016;2023-03-30T08:06:03;13.00;99.90
24902;DHT22;31328;51.402;0.016;2023-03-30T08:08:34;13.00;99.90
24902;DHT22;31328;51.402;0.016;2023-03-30T08:11:04;13.00;99.90
24902;DHT22;31328;51.402;0.016;2023-03-30T08:13:31;13.00;99.90
24902;DHT22;31328;51.402;0.016;2023-03-30T08:15:58;13.00;99.90
24902;DHT22;31328;51.402;0.016;2023-03-30T08:18:24;13.00;99.90
24902;DHT22;31328;51.402;0.016;2023-03-30T08:20:52;13.10;99.90
24902;DHT22;31328;51.402;0.016;2023-03-30T08:23:19;13.10;99.90
24902;DHT22;31328;51.402;0.016;2023-03-30T08:25:46;13.10;99.90
24902;DHT22;31328;51.402;0.016;2023-03-30T08:28:16;13.10;99.90
24902;DHT22;31328;51.402;0.016;2023-03-30T08:30:42;13.20;99.90
24902;DHT22;31328;51.402;0.016;2023-03-30T08:33:08;13.20;99.90
24902;DHT22;31328;51.402;0.016;2023-03-30T08:35:35;13.30;99.90
24902;DHT22;31328;51.402;0.016;2023-03-30T08:38:01;13.40;99.90
24902;DHT22;31328;51.402;0.016;2023-03-30T08:40:27;13.40;99.90
24902;DHT22;31328;51.402;0.016;2023-03-30T08:45:24;13.60;99.90
24902;DHT22;31328;51.402;0.016;2023-03-30T08:47:51;13.60;99.90
24902;DHT22;31328;51.402;0.016;2023-03-30T08:50:32;13.70;99.90
24902;DHT22;31328;51.402;0.016;2023-03-30T08:52:59;13.80;99.90
24902;DHT22;31328;51.402;0.016;2023-03-30T09:01:10;14.00;99.90
24902;DHT22;31328;51.402;0.016;2023-03-30T09:03:42;14.00;99.90
24902;DHT22;31328;51.402;0.016;2023-03-30T09:06:18;14.00;99.90
24902;DHT22;31328;51.402;0.016;2023-03-30T09:08:48;14.00;99.90
24902;DHT22;31328;51.402;0.016;2023-03-30T09:11:21;14.00;99.90
24902;DHT22;31328;51.402;0.016;2023-03-30T09:13:50;13.90;99.90
24902;DHT22;31328;51.402;0.016;2023-03-30T09:16:58;14.00;99.90
24902;DHT22;31328;51.402;0.016;2023-03-30T09:19:24;14.00;99.90
24902;DHT22;31328;51.402;0.016;2023-03-30T09:21:53;14.10;99.90
24902;DHT22;31328;51.402;0.016;2023-03-30T09:24:25;14.20;99.90
24902;DHT22;31328;51.402;0.016;2023-03-30T09:27:14;14.30;99.90
24902;DHT22;31328;51.402;0.016;2023-03-30T09:29:46;14.40;99.90
24902;DHT22;31328;51.402;0.016;2023-03-30T09:32:26;14.50;99.90
24902;DHT22;31328;51.402;0.016;2023-03-30T09:35:04;14.60;99.90
24902;DHT22;31328;51.402;0.016;2023-03-30T09:37:36;14.70;99.90
24902;DHT22;31328;51.402;0.016;2023-03-30T09:40:44;14.80;99.90
24902;DHT22;31328;51.402;0.016;2023-03-30T09:43:31;14.80;99.90
24902;DHT22;31328;51.402;0.016;2023-03-30T09:46:01;14.90;99.90
24902;DHT22;31328;51.402;0.016;2023-03-30T09:48:37;14.90;99.90
24902;DHT22;31328;51.402;0.016;2023-03-30T09:51:14;14.90;99.90
24902;DHT22;31328;51.402;0.016;2023-03-30T09:53:42;14.90;99.90
24902;DHT22;31328;51.402;0.016;2023-03-30T09:56:20;14.90;99.90
24902;DHT22;31328;51.402;0.016;2023-03-30T09:58:51;14.90;99.90
24902;DHT22;31328;51.402;0.016;2023-03-30T10:01:19;14.90;99.90
24902;DHT22;31328;51.402;0.016;2023-03-30T10:04:08;15.00;99.90
24902;DHT22;31328;51.402;0.016;2023-03-30T10:06:38;15.00;99.90
24902;DHT22;31328;51.402;0.016;2023-03-30T10:09:08;15.10;99.90
24902;DHT22;31328;51.402;0.016;2023-03-30T10:11:43;15.10;99.90
24902;DHT22;31328;51.402;0.016;2023-03-30T10:16:46;15.40;99.90
24902;DHT22;31328;51.402;0.016;2023-03-30T10:19:18;15.50;99.90
24902;DHT22;31328;51.402;0.016;2023-03-30T10:21:46;15.50;99.90
24902;DHT22;31328;51.402;0.016;2023-03-30T10:26:43;15.50;99.90
24902;DHT22;31328;51.402;0.016;2023-03-30T10:29:16;15.50;99.90
24902;DHT22;31328;51.402;0.016;2023-03-30T10:31:45;15.50;99.90
24902;DHT22;31328;51.402;0.016;2023-03-30T10:34:19;15.60;99.90
24902;DHT22;31328;51.402;0.016;2023-03-30T10:36:47;15.70;99.90
24902;DHT22;31328;51.402;0.016;2023-03-30T10:41:47;15.90;99.90
24902;DHT22;31328;51.402;0.016;2023-03-30T10:44:24;16.10;99.90
24902;DHT22;31328;51.402;0.016;2023-03-30T10:46:55;16.10;99.90
24902;DHT22;31328;51.402;0.016;2023-03-30T11:03:19;16.10;99.80
24902;DHT22;31328;51.402;0.016;2023-03-30T11:05:53;16.10;99.70
24902;DHT22;31328;51.402;0.016;2023-03-30T11:08:28;16.10;99.80
24902;DHT22;31328;51.402;0.016;2023-03-30T11:10:57;16.00;99.70
24902;DHT22;31328;51.402;0.016;2023-03-30T11:13:31;16.00;99.90
24902;DHT22;31328;51.402;0.016;2023-03-30T11:16:04;15.90;99.90
24902;DHT22;31328;51.402;0.016;2023-03-30T11:21:29;15.60;99.90
24902;DHT22;31328;51.402;0.016;2023-03-30T11:24:19;15.60;99.90
24902;DHT22;31328;51.402;0.016;2023-03-30T11:35:19;15.40;99.90
24902;DHT22;31328;51.402;0.016;2023-03-30T11:38:03;15.40;99.90
24902;DHT22;31328;51.402;0.016;2023-03-30T11:43:17;15.40;99.90
24902;DHT22;31328;51.402;0.016;2023-03-30T11:46:07;15.50;99.90
24902;DHT22;31328;51.402;0.016;2023-03-30T11:57:23;15.70;99.90
24902;DHT22;31328;51.402;0.016;2023-03-30T12:05:44;16.00;99.90
24902;DHT22;31328;51.402;0.016;2023-03-30T12:08:20;16.10;99.90
24902;DHT22;31328;51.402;0.016;2023-03-30T12:10:54;16.20;99.90
24902;DHT22;31328;51.402;0.016;2023-03-30T12:13:25;16.30;99.60
24902;DHT22;31328;51.402;0.016;2023-03-30T12:15:59;16.40;99.60
24902;DHT22;31328;51.402;0.016;2023-03-30T12:18:42;16.50;99.40
24902;DHT22;31328;51.402;0.016;2023-03-30T12:21:31;16.50;99.10
24902;DHT22;31328;51.402;0.016;2023-03-30T12:24:28;16.50;99.00
24902;DHT22;31328;51.402;0.016;2023-03-30T12:26:58;16.50;99.10
24902;DHT22;31328;51.402;0.016;2023-03-30T12:29:43;16.50;99.10
24902;DHT22;31328;51.402;0.016;2023-03-30T12:32:25;16.50;99.00
24902;DHT22;31328;51.402;0.016;2023-03-30T12:34:52;16.50;99.00
24902;DHT22;31328;51.402;0.016;2023-03-30T12:39:54;16.50;98.80
24902;DHT22;31328;51.402;0.016;2023-03-30T12:42:29;16.50;98.70
24902;DHT22;31328;51.402;0.016;2023-03-30T12:45:10;16.50;98.60
24902;DHT22;31328;51.402;0.016;2023-03-30T12:50:30;16.60;98.60
24902;DHT22;31328;51.402;0.016;2023-03-30T13:04:04;16.70;98.00
24902;DHT22;31328;51.402;0.016;2023-03-30T13:06:34;16.80;97.90
24902;DHT22;31328;51.402;0.016;2023-03-30T13:17:04;16.80;97.70
24902;DHT22;31328;51.402;0.016;2023-03-30T13:22:19;16.70;97.90
24902;DHT22;31328;51.402;0.016;2023-03-30T13:27:41;16.80;97.80
24902;DHT22;31328;51.402;0.016;2023-03-30T13:46:34;17.00;97.00
24902;DHT22;31328;51.402;0.016;2023-03-30T13:51:51;17.00;96.80
24902;DHT22;31328;51.402;0.016;2023-03-30T13:54:23;17.00;96.90
24902;DHT22;31328;51.402;0.016;2023-03-30T13:57:20;16.90;96.70
24902;DHT22;31328;51.402;0.016;2023-03-30T13:59:57;16.90;96.60
24902;DHT22;31328;51.402;0.016;2023-03-30T14:02:28;16.90;97.00
24902;DHT22;31328;51.402;0.016;2023-03-30T14:05:10;16.90;96.80
24902;DHT22;31328;51.402;0.016;2023-03-30T14:07:43;16.90;96.80
24902;DHT22;31328;51.402;0.016;2023-03-30T14:10:18;16.90;96.90
24902;DHT22;31328;51.402;0.016;2023-03-30T14:12:49;16.80;96.90
24902;DHT22;31328;51.402;0.016;2023-03-30T14:15:21;16.80;96.90
24902;DHT22;31328;51.402;0.016;2023-03-30T14:17:50;16.90;96.90
24902;DHT22;31328;51.402;0.016;2023-03-30T14:25:45;16.80;96.30
24902;DHT22;31328;51.402;0.016;2023-03-30T14:28:15;16.70;96.40
24902;DHT22;31328;51.402;0.016;2023-03-30T14:30:53;16.70;96.40
24902;DHT22;31328;51.402;0.016;2023-03-30T14:33:23;16.70;96.40
24902;DHT22;31328;51.402;0.016;2023-03-30T14:35:58;16.70;96.50
24902;DHT22;31328;51.402;0.016;2023-03-30T14:38:27;16.70;96.40
24902;DHT22;31328;51.402;0.016;2023-03-30T14:40:55;16.70;96.40
24902;DHT22;31328;51.402;0.016;2023-03-30T14:43:24;16.60;96.40
24902;DHT22;31328;51.402;0.016;2023-03-30T14:45:54;16.60;96.30
24902;DHT22;31328;51.402;0.016;2023-03-30T14:48:27;16.50;96.30
24902;DHT22;31328;51.402;0.016;2023-03-30T14:50:55;16.50;96.20
24902;DHT22;31328;51.402;0.016;2023-03-30T14:53:24;16.40;96.00
24902;DHT22;31328;51.402;0.016;2023-03-30T14:55:52;16.40;96.10
24902;DHT22;31328;51.402;0.016;2023-03-30T14:58:23;16.40;96.10
24902;DHT22;31328;51.402;0.016;2023-03-30T15:00:56;16.40;96.00
24902;DHT22;31328;51.402;0.016;2023-03-30T15:03:27;16.40;95.80
24902;DHT22;31328;51.402;0.016;2023-03-30T15:05:59;16.50;95.70
24902;DHT22;31328;51.402;0.016;2023-03-30T15:08:30;16.50;95.40
24902;DHT22;31328;51.402;0.016;2023-03-30T15:11:06;16.60;95.50
24902;DHT22;31328;51.402;0.016;2023-03-30T15:13:47;16.80;95.30
24902;DHT22;31328;51.402;0.016;2023-03-30T15:16:22;16.80;95.30
24902;DHT22;31328;51.402;0.016;2023-03-30T15:18:52;16.80;95.30
24902;DHT22;31328;51.402;0.016;2023-03-30T15:21:20;16.80;95.30
24902;DHT22;31328;51.402;0.016;2023-03-30T15:23:49;16.70;95.20
24902;DHT22;31328;51.402;0.016;2023-03-30T15:26:17;16.60;95.20
24902;DHT22;31328;51.402;0.016;2023-03-30T15:28:55;16.60;95.20
24902;DHT22;31328;51.402;0.016;2023-03-30T15:31:26;16.50;95.10
24902;DHT22;31328;51.402;0.016;2023-03-30T15:33:57;16.40;95.30
24902;DHT22;31328;51.402;0.016;2023-03-30T15:36:36;16.40;95.40
24902;DHT22;31328;51.402;0.016;2023-03-30T15:39:21;16.40;95.60
24902;DHT22;31328;51.402;0.016;2023-03-30T15:41:57;16.40;95.60
24902;DHT22;31328;51.402;0.016;2023-03-30T15:44:27;16.30;95.80
24902;DHT22;31328;51.402;0.016;2023-03-30T15:46:54;16.30;95.90
24902;DHT22;31328;51.402;0.016;2023-03-30T15:49:35;16.40;96.00
24902;DHT22;31328;51.402;0.016;2023-03-30T15:54:56;16.30;95.80
24902;DHT22;31328;51.402;0.016;2023-03-30T15:57:28;16.30;95.80
24902;DHT22;31328;51.402;0.016;2023-03-30T16:00:00;16.20;95.70
24902;DHT22;31328;51.402;0.016;2023-03-30T16:04:59;16.00;95.70
24902;DHT22;31328;51.402;0.016;2023-03-30T16:07:25;16.00;95.70
24902;DHT22;31328;51.402;0.016;2023-03-30T16:09:53;16.00;95.60
24902;DHT22;31328;51.402;0.016;2023-03-30T16:12:25;16.00;95.70
24902;DHT22;31328;51.402;0.016;2023-03-30T16:14:53;16.00;95.60
24902;DHT22;31328;51.402;0.016;2023-03-30T16:17:19;16.00;95.70
24902;DHT22;31328;51.402;0.016;2023-03-30T16:19:46;15.90;95.70
24902;DHT22;31328;51.402;0.016;2023-03-30T16:22:14;15.90;95.70
24902;DHT22;31328;51.402;0.016;2023-03-30T16:24:41;15.90;95.70
24902;DHT22;31328;51.402;0.016;2023-03-30T16:27:10;15.80;95.60
24902;DHT22;31328;51.402;0.016;2023-03-30T16:29:37;15.90;95.70
24902;DHT22;31328;51.402;0.016;2023-03-30T16:32:04;15.80;95.60
24902;DHT22;31328;51.402;0.016;2023-03-30T16:34:30;15.80;95.60
24902;DHT22;31328;51.402;0.016;2023-03-30T16:36:56;15.80;95.60
24902;DHT22;31328;51.402;0.016;2023-03-30T16:39:25;15.80;95.60
24902;DHT22;31328;51.402;0.016;2023-03-30T16:41:53;15.70;95.70
24902;DHT22;31328;51.402;0.016;2023-03-30T16:44:21;15.70;95.60
24902;DHT22;31328;51.402;0.016;2023-03-30T16:46:49;15.60;95.70
24902;DHT22;31328;51.402;0.016;2023-03-30T16:49:21;15.50;95.70
24902;DHT22;31328;51.402;0.016;2023-03-30T16:51:49;15.50;95.70
24902;DHT22;31328;51.402;0.016;2023-03-30T16:54:16;15.40;95.80
24902;DHT22;31328;51.402;0.016;2023-03-30T16:56:42;15.30;95.90
24902;DHT22;31328;51.402;0.016;2023-03-30T16:59:28;15.30;96.00
24902;DHT22;31328;51.402;0.016;2023-03-30T17:01:57;15.20;95.90
24902;DHT22;31328;51.402;0.016;2023-03-30T17:04:23;15.20;96.10
24902;DHT22;31328;51.402;0.016;2023-03-30T17:06:49;15.20;96.10
24902;DHT22;31328;51.402;0.016;2023-03-30T17:09:17;15.10;96.20
24902;DHT22;31328;51.402;0.016;2023-03-30T17:11:46;15.10;96.30
24902;DHT22;31328;51.402;0.016;2023-03-30T17:14:12;15.10;96.40
24902;DHT22;31328;51.402;0.016;2023-03-30T17:16:39;15.00;96.50
24902;DHT22;31328;51.402;0.016;2023-03-30T17:19:10;15.00;96.60
24902;DHT22;31328;51.402;0.016;2023-03-30T17:21:37;15.00;96.80
24902;DHT22;31328;51.402;0.016;2023-03-30T17:24:03;14.90;96.90
24902;DHT22;31328;51.402;0.016;2023-03-30T17:26:30;14.90;97.00
24902;DHT22;31328;51.402;0.016;2023-03-30T17:28:56;14.90;97.10
24902;DHT22;31328;51.402;0.016;2023-03-30T17:31:22;14.80;97.20
24902;DHT22;31328;51.402;0.016;2023-03-30T17:33:49;14.80;97.30
24902;DHT22;31328;51.402;0.016;2023-03-30T17:36:16;14.70;97.50
24902;DHT22;31328;51.402;0.016;2023-03-30T17:38:43;14.60;97.60
24902;DHT22;31328;51.402;0.016;2023-03-30T17:41:11;14.60;97.70
24902;DHT22;31328;51.402;0.016;2023-03-30T17:43:39;14.50;97.80
24902;DHT22;31328;51.402;0.016;2023-03-30T17:46:05;14.50;97.90
24902;DHT22;31328;51.402;0.016;2023-03-30T17:48:32;14.40;98.00
24902;DHT22;31328;51.402;0.016;2023-03-30T17:50:58;14.40;98.10
24902;DHT22;31328;51.402;0.016;2023-03-30T17:53:24;14.30;98.20
24902;DHT22;31328;51.402;0.016;2023-03-30T17:55:51;14.30;98.30
24902;DHT22;31328;51.402;0.016;2023-03-30T18:00:47;14.20;98.50
24902;DHT22;31328;51.402;0.016;2023-03-30T18:03:14;14.20;98.60
24902;DHT22;31328;51.402;0.016;2023-03-30T18:05:41;14.10;98.70
24902;DHT22;31328;51.402;0.016;2023-03-30T18:08:19;14.10;98.90
24902;DHT22;31328;51.402;0.016;2023-03-30T18:10:48;14.10;99.00
24902;DHT22;31328;51.402;0.016;2023-03-30T18:13:15;14.00;99.20
24902;DHT22;31328;51.402;0.016;2023-03-30T18:15:42;13.90;99.20
24902;DHT22;31328;51.402;0.016;2023-03-30T18:18:10;13.90;99.30
24902;DHT22;31328;51.402;0.016;2023-03-30T18:20:41;13.80;99.30
24902;DHT22;31328;51.402;0.016;2023-03-30T18:23:09;13.80;99.40
24902;DHT22;31328;51.402;0.016;2023-03-30T18:25:36;13.80;99.40
24902;DHT22;31328;51.402;0.016;2023-03-30T18:28:03;13.70;99.50
24902;DHT22;31328;51.402;0.016;2023-03-30T18:30:35;13.70;99.50
24902;DHT22;31328;51.402;0.016;2023-03-30T18:33:05;13.60;99.60
24902;DHT22;31328;51.402;0.016;2023-03-30T18:35:33;13.50;99.60
24902;DHT22;31328;51.402;0.016;2023-03-30T18:38:00;13.50;99.60
24902;DHT22;31328;51.402;0.016;2023-03-30T18:40:31;13.40;99.70
24902;DHT22;31328;51.402;0.016;2023-03-30T18:42:57;13.40;99.70
24902;DHT22;31328;51.402;0.016;2023-03-30T18:45:35;13.40;99.70
24902;DHT22;31328;51.402;0.016;2023-03-30T18:48:04;13.40;99.80